Time;durP1;ratioP1;P1;durP2;ratioP2;P2;SDS_P1;SDS_P2;PMS_P1;PMS_P2;Temp;Humidity;BMP_temperature;BMP_pressure;BME280_temperature;BME280_humidity;BME280_pressure;Samples;Min_cycle;Max_cycle;Signal;HPM_P1;HPM_P2
2021/08/09 00:02:09;;;;;;;4.15;1.33;;;15.60;98.70;;;;;;5055407;28;20108;-80
2021/08/09 00:04:39;;;;;;;2.85;1.30;;;15.70;98.70;;;;;;5055206;28;20076;-80
2021/08/09 00:07:07;;;;;;;3.05;1.23;;;15.60;98.60;;;;;;5054075;28;20045;-80
2021/08/09 00:09:34;;;;;;;3.65;1.50;;;15.70;98.60;;;;;;5054685;28;20052;-79
2021/08/09 00:12:01;;;;;;;4.75;1.25;;;15.60;98.60;;;;;;5054300;28;20076;-80
2021/08/09 00:14:30;;;;;;;2.92;1.20;;;15.70;98.70;;;;;;5054202;28;20098;-80
2021/08/09 00:16:57;;;;;;;3.22;1.10;;;15.70;99.00;;;;;;5054762;28;20463;-75
2021/08/09 00:19:24;;;;;;;3.97;1.20;;;15.70;98.70;;;;;;5058992;28;20112;-77
2021/08/09 00:21:52;;;;;;;2.83;1.38;;;15.70;98.90;;;;;;5059570;28;20152;-76
2021/08/09 00:24:19;;;;;;;3.47;1.40;;;15.70;98.60;;;;;;5057712;28;20052;-79
2021/08/09 00:26:46;;;;;;;2.70;1.30;;;15.70;98.50;;;;;;5062143;28;20116;-81
2021/08/09 00:29:13;;;;;;;3.05;1.38;;;15.70;98.50;;;;;;5065353;28;20509;-76
2021/08/09 00:31:41;;;;;;;3.10;1.15;;;15.70;98.50;;;;;;5061642;28;20131;-80
2021/08/09 00:34:08;;;;;;;4.18;1.27;;;15.70;98.40;;;;;;5053457;28;20439;-78
2021/08/09 00:36:35;;;;;;;4.85;1.30;;;15.70;98.40;;;;;;5053982;28;20128;-79
2021/08/09 00:39:02;;;;;;;3.35;1.20;;;15.60;98.50;;;;;;5053847;28;20135;-81
2021/08/09 00:41:29;;;;;;;2.97;1.13;;;15.60;98.30;;;;;;5054143;28;20447;-78
2021/08/09 00:43:56;;;;;;;4.55;1.25;;;15.50;98.60;;;;;;5053810;28;20136;-77
2021/08/09 00:46:24;;;;;;;2.67;1.20;;;15.50;98.80;;;;;;5053308;28;20045;-80
2021/08/09 00:48:52;;;;;;;3.97;1.52;;;15.50;98.80;;;;;;5053898;28;20049;-77
2021/08/09 00:51:19;;;;;;;5.15;1.75;;;15.40;98.70;;;;;;5053277;28;20139;-80
2021/08/09 00:53:46;;;;;;;4.07;1.25;;;15.40;98.80;;;;;;5053622;28;20568;-79
2021/08/09 00:56:14;;;;;;;3.53;1.25;;;15.30;98.80;;;;;;5053354;28;20538;-79
2021/08/09 00:58:41;;;;;;;3.35;1.25;;;15.30;99.00;;;;;;5053609;28;20550;-80
2021/08/09 01:01:08;;;;;;;3.72;1.40;;;15.30;99.20;;;;;;5052925;28;20041;-80
2021/08/09 01:03:36;;;;;;;3.08;1.25;;;15.30;99.20;;;;;;5053852;28;20120;-79
2021/08/09 01:06:05;;;;;;;3.28;1.40;;;15.20;99.40;;;;;;5053491;28;20055;-80
2021/08/09 01:08:51;;;;;;;3.58;1.50;;;15.20;99.30;;;;;;5045097;28;20558;-78
2021/08/09 01:11:25;;;;;;;3.80;1.27;;;15.20;99.20;;;;;;5052431;28;20131;-81
2021/08/09 01:14:00;;;;;;;4.88;1.67;;;15.20;99.30;;;;;;5053308;28;20550;-79
2021/08/09 01:16:32;;;;;;;2.40;1.10;;;15.20;99.30;;;;;;5053127;28;20051;-78
2021/08/09 01:19:20;;;;;;;3.80;1.27;;;15.10;99.40;;;;;;5052943;28;20132;-79
2021/08/09 01:21:50;;;;;;;4.03;1.20;;;15.10;99.40;;;;;;5047569;28;20049;-81
2021/08/09 01:24:30;;;;;;;3.58;1.40;;;15.10;99.30;;;;;;5053129;28;20146;-79
2021/08/09 01:27:07;;;;;;;3.80;1.40;;;15.10;99.40;;;;;;5049608;28;20140;-79
2021/08/09 01:29:43;;;;;;;2.92;1.20;;;15.00;99.50;;;;;;5046170;28;20469;-80
2021/08/09 01:32:11;;;;;;;3.20;1.25;;;15.00;99.60;;;;;;5053721;28;20446;-80
2021/08/09 01:34:39;;;;;;;3.85;1.35;;;15.00;99.70;;;;;;5050983;28;20068;-80
2021/08/09 01:37:06;;;;;;;4.85;1.33;;;15.00;99.70;;;;;;5052270;28;20525;-79
2021/08/09 01:39:34;;;;;;;4.97;1.48;;;14.90;99.70;;;;;;5053313;28;20120;-78
2021/08/09 01:42:02;;;;;;;4.00;1.30;;;14.90;99.70;;;;;;5052969;28;20091;-80
2021/08/09 01:44:29;;;;;;;3.60;1.58;;;14.90;99.70;;;;;;5052781;28;20533;-81
2021/08/09 01:46:58;;;;;;;3.55;1.30;;;14.90;99.80;;;;;;5055488;28;20120;-80
2021/08/09 01:49:25;;;;;;;4.88;1.27;;;14.90;99.80;;;;;;5055899;28;20462;-76
2021/08/09 01:51:52;;;;;;;3.53;1.25;;;14.90;99.80;;;;;;5055594;28;20148;-77
2021/08/09 01:54:20;;;;;;;2.85;1.20;;;14.90;99.70;;;;;;5054925;28;20143;-80
2021/08/09 01:56:47;;;;;;;3.17;1.38;;;14.80;99.70;;;;;;5052612;28;20059;-81
2021/08/09 01:59:14;;;;;;;3.00;1.25;;;14.80;99.90;;;;;;5052690;28;20084;-81
2021/08/09 02:01:42;;;;;;;3.97;1.33;;;14.70;99.80;;;;;;5057345;28;20076;-79
2021/08/09 02:04:10;;;;;;;2.67;1.30;;;14.70;99.90;;;;;;5058848;28;20084;-80
2021/08/09 02:06:37;;;;;;;3.42;1.33;;;14.70;99.90;;;;;;5048537;28;20077;-79
2021/08/09 02:09:06;;;;;;;3.72;1.50;;;14.60;99.70;;;;;;5048228;28;20133;-79
2021/08/09 02:11:42;;;;;;;3.60;1.77;;;14.60;99.80;;;;;;5045374;28;20120;-79
2021/08/09 02:14:12;;;;;;;4.05;1.70;;;14.50;99.80;;;;;;5052554;28;20132;-80
2021/08/09 02:16:44;;;;;;;3.75;1.60;;;14.40;99.80;;;;;;5052969;28;20124;-76
2021/08/09 02:19:21;;;;;;;4.75;1.60;;;14.40;99.90;;;;;;5052291;28;20124;-79
2021/08/09 02:21:56;;;;;;;6.32;1.48;;;14.30;99.90;;;;;;5054728;28;20056;-80
2021/08/09 02:24:27;;;;;;;;;;;14.20;99.90;;;;;;5056665;28;20052;-80
2021/08/09 02:26:59;;;;;;;4.80;1.40;;;14.20;99.90;;;;;;5056527;28;20453;-79
2021/08/09 02:29:32;;;;;;;4.00;1.80;;;14.20;99.90;;;;;;5056229;28;20470;-80
2021/08/09 02:32:01;;;;;;;4.32;1.60;;;14.20;99.90;;;;;;5056465;28;20051;-80
2021/08/09 02:34:32;;;;;;;2.70;1.20;;;14.20;99.90;;;;;;5055892;28;20069;-76
2021/08/09 02:37:01;;;;;;;3.08;1.38;;;14.20;99.90;;;;;;5055782;28;20059;-78
2021/08/09 02:39:30;;;;;;;4.05;1.58;;;14.30;99.90;;;;;;5056225;28;20127;-78
2021/08/09 02:41:58;;;;;;;4.28;1.55;;;14.30;99.90;;;;;;5056483;28;20151;-77
2021/08/09 02:44:25;;;;;;;3.67;1.58;;;14.20;99.90;;;;;;5055718;28;20047;-76
2021/08/09 02:46:53;;;;;;;2.97;1.35;;;14.10;99.90;;;;;;5055969;28;20592;-77
2021/08/09 02:49:20;;;;;;;3.50;1.45;;;14.00;99.90;;;;;;5052614;28;20065;-77
2021/08/09 02:51:49;;;;;;;3.22;1.50;;;13.90;99.90;;;;;;5055792;28;20406;-78
2021/08/09 02:54:18;;;;;;;2.30;1.05;;;13.80;99.90;;;;;;5056297;28;20077;-75
2021/08/09 02:56:47;;;;;;;3.60;1.52;;;13.70;99.90;;;;;;5055952;28;20125;-78
2021/08/09 02:59:15;;;;;;;3.42;1.95;;;13.70;99.90;;;;;;5055577;28;20484;-77
2021/08/09 03:01:42;;;;;;;4.10;1.50;;;13.80;99.90;;;;;;5056415;28;20091;-80
2021/08/09 03:04:15;;;;;;;4.40;1.60;;;13.80;99.90;;;;;;5053609;28;20137;-78
2021/08/09 03:06:42;;;;;;;6.45;2.47;;;13.80;99.90;;;;;;5053956;28;20072;-78
2021/08/09 03:09:11;;;;;;;6.93;2.10;;;13.90;99.90;;;;;;5052799;28;20131;-80
2021/08/09 03:11:42;;;;;;;6.07;2.30;;;13.90;99.90;;;;;;5052929;28;20041;-79
2021/08/09 03:14:22;;;;;;;5.43;1.95;;;13.90;99.90;;;;;;5053132;28;20553;-76
2021/08/09 03:16:49;;;;;;;3.70;1.50;;;13.90;99.90;;;;;;5053347;28;20081;-80
2021/08/09 03:19:16;;;;;;;3.63;1.55;;;13.90;99.90;;;;;;5052912;28;20068;-78
2021/08/09 03:21:51;;;;;;;4.25;1.60;;;13.90;99.90;;;;;;5052602;28;20132;-81
2021/08/09 03:24:21;;;;;;;3.28;1.48;;;13.90;99.90;;;;;;5052810;28;20049;-81
2021/08/09 03:26:48;;;;;;;3.95;1.40;;;13.90;99.90;;;;;;5052122;28;20055;-79
2021/08/09 03:29:16;;;;;;;4.03;1.60;;;13.90;99.90;;;;;;5052317;28;20491;-80
2021/08/09 03:31:43;;;;;;;2.78;1.30;;;13.90;99.90;;;;;;5052908;28;20091;-77
2021/08/09 03:34:11;;;;;;;3.97;1.60;;;13.90;99.90;;;;;;5051855;28;20076;-78
2021/08/09 03:36:41;;;;;;;3.55;1.42;;;13.90;99.90;;;;;;5052160;28;20128;-80
2021/08/09 03:39:08;;;;;;;4.55;1.65;;;13.90;99.90;;;;;;5052752;28;20049;-79
2021/08/09 03:41:37;;;;;;;3.67;1.55;;;13.90;99.90;;;;;;5052868;28;20037;-79
2021/08/09 03:44:05;;;;;;;4.93;1.60;;;13.90;99.90;;;;;;5058473;28;20148;-78
2021/08/09 03:46:32;;;;;;;4.00;1.70;;;13.90;99.90;;;;;;5046008;28;20072;-79
2021/08/09 03:49:03;;;;;;;2.90;1.48;;;13.90;99.90;;;;;;5052757;28;20129;-78
2021/08/09 03:51:30;;;;;;;4.55;1.50;;;13.90;99.90;;;;;;5051843;28;20106;-80
2021/08/09 03:53:57;;;;;;;4.18;1.48;;;13.90;99.90;;;;;;5054005;28;20132;-80
2021/08/09 03:56:24;;;;;;;3.55;1.70;;;13.90;99.90;;;;;;5052352;28;20557;-79
2021/08/09 03:58:53;;;;;;;5.30;2.00;;;13.90;99.90;;;;;;5056948;28;20072;-79
2021/08/09 04:01:20;;;;;;;5.45;1.60;;;13.80;99.90;;;;;;5053318;28;20051;-79
2021/08/09 04:03:48;;;;;;;3.83;1.67;;;13.80;99.90;;;;;;5057409;28;20064;-79
2021/08/09 04:06:16;;;;;;;3.15;1.50;;;13.70;99.90;;;;;;5059053;28;20529;-78
2021/08/09 04:08:43;;;;;;;3.08;1.50;;;13.60;99.90;;;;;;5065409;28;20094;-77
2021/08/09 04:11:12;;;;;;;3.67;1.60;;;13.60;99.90;;;;;;5064451;28;20101;-81
2021/08/09 04:13:41;;;;;;;4.28;1.63;;;13.60;99.90;;;;;;5065002;28;20450;-80
2021/08/09 04:16:10;;;;;;;3.35;1.50;;;13.60;99.90;;;;;;5059357;28;20053;-81
2021/08/09 04:18:38;;;;;;;5.82;1.48;;;13.60;99.90;;;;;;5053877;28;20041;-78
2021/08/09 04:21:06;;;;;;;4.03;1.42;;;13.60;99.90;;;;;;5053913;28;20051;-80
2021/08/09 04:23:33;;;;;;;4.63;1.40;;;13.60;99.90;;;;;;5054122;28;20068;-75
2021/08/09 04:26:00;;;;;;;4.60;1.50;;;13.60;99.90;;;;;;5053727;28;20143;-78
2021/08/09 04:28:27;;;;;;;4.28;1.60;;;13.60;99.90;;;;;;5053553;28;20136;-79
2021/08/09 04:30:54;;;;;;;3.30;1.60;;;13.50;99.90;;;;;;5053130;28;20463;-76
2021/08/09 04:33:22;;;;;;;3.05;1.50;;;13.40;99.90;;;;;;5054187;28;20049;-76
2021/08/09 04:35:49;;;;;;;4.50;1.60;;;13.30;99.90;;;;;;5053869;28;20140;-77
2021/08/09 04:38:16;;;;;;;3.03;1.42;;;13.30;99.90;;;;;;5054179;28;20198;-75
2021/08/09 04:40:43;;;;;;;3.67;1.30;;;13.30;99.90;;;;;;5054177;28;20131;-76
2021/08/09 04:43:10;;;;;;;2.83;1.42;;;13.20;99.90;;;;;;5053903;28;20565;-75
2021/08/09 04:45:37;;;;;;;2.95;1.40;;;13.20;99.90;;;;;;5052861;28;20041;-77
2021/08/09 04:48:05;;;;;;;3.42;1.55;;;13.30;99.90;;;;;;5053934;28;20056;-76
2021/08/09 04:50:33;;;;;;;3.10;1.42;;;13.40;99.90;;;;;;5053001;28;20052;-76
2021/08/09 04:53:00;;;;;;;4.13;1.83;;;13.40;99.90;;;;;;5053811;28;20136;-76
2021/08/09 04:55:27;;;;;;;5.15;1.98;;;13.40;99.90;;;;;;5053551;28;20469;-77
2021/08/09 04:57:54;;;;;;;4.35;1.92;;;13.40;99.90;;;;;;5053716;28;20085;-76
2021/08/09 05:00:21;;;;;;;4.72;2.08;;;13.40;99.90;;;;;;5053651;28;20465;-76
2021/08/09 05:02:48;;;;;;;4.75;1.80;;;13.40;99.90;;;;;;5053589;28;20139;-78
2021/08/09 05:05:15;;;;;;;5.82;1.80;;;13.40;99.90;;;;;;5053498;28;20136;-77
2021/08/09 05:07:44;;;;;;;3.60;1.58;;;13.40;99.90;;;;;;5053510;28;20136;-76
2021/08/09 05:10:12;;;;;;;3.55;1.52;;;13.50;99.90;;;;;;5053531;28;20079;-76
2021/08/09 05:12:39;;;;;;;4.15;1.75;;;13.50;99.90;;;;;;5053199;28;20137;-78
2021/08/09 05:15:08;;;;;;;4.22;1.50;;;13.60;99.90;;;;;;5053367;28;20131;-76
2021/08/09 05:17:37;;;;;;;6.28;1.95;;;13.70;99.90;;;;;;5053224;28;20124;-75
2021/08/09 05:20:05;;;;;;;4.35;1.60;;;13.70;99.90;;;;;;5053748;28;20103;-77
2021/08/09 05:22:33;;;;;;;3.72;1.40;;;13.80;99.90;;;;;;5059595;28;20052;-75
2021/08/09 05:25:03;;;;;;;4.75;1.60;;;13.80;99.90;;;;;;5059579;28;20120;-77
2021/08/09 05:27:30;;;;;;;4.07;1.40;;;13.90;99.90;;;;;;5060210;28;20045;-76
2021/08/09 05:29:57;;;;;;;5.68;2.00;;;13.90;99.90;;;;;;5057572;28;20546;-74
2021/08/09 05:32:24;;;;;;;5.70;1.92;;;13.90;99.90;;;;;;5053848;28;20131;-77
2021/08/09 05:34:51;;;;;;;3.50;1.70;;;13.90;99.90;;;;;;5054983;28;20147;-75
2021/08/09 05:37:18;;;;;;;5.88;2.13;;;13.90;99.90;;;;;;5057976;28;20140;-76
2021/08/09 05:39:45;;;;;;;4.03;1.77;;;13.90;99.90;;;;;;5057560;28;20136;-77
2021/08/09 05:42:14;;;;;;;4.93;1.83;;;13.90;99.90;;;;;;5058331;28;20124;-76
2021/08/09 05:44:41;;;;;;;16.13;8.40;;;13.80;99.90;;;;;;5053793;28;20112;-77
2021/08/09 05:47:08;;;;;;;15.02;7.50;;;13.90;99.90;;;;;;5056613;28;20127;-77
2021/08/09 05:49:35;;;;;;;7.47;3.60;;;14.00;99.90;;;;;;5053925;28;20128;-75
2021/08/09 05:52:02;;;;;;;6.03;2.80;;;14.00;99.90;;;;;;5053177;28;20132;-76
2021/08/09 05:54:29;;;;;;;5.10;2.40;;;14.10;99.90;;;;;;5052479;28;20074;-76
2021/08/09 05:56:56;;;;;;;4.00;1.80;;;14.10;99.90;;;;;;5052839;28;20056;-75
2021/08/09 05:59:24;;;;;;;4.85;2.15;;;14.20;99.90;;;;;;5053344;28;20132;-76
2021/08/09 06:01:51;;;;;;;4.35;1.70;;;14.30;99.90;;;;;;5052786;28;20136;-76
2021/08/09 06:04:18;;;;;;;3.45;1.70;;;14.40;99.90;;;;;;5052925;28;20128;-76
2021/08/09 06:06:45;;;;;;;4.57;1.45;;;14.40;99.90;;;;;;5052887;28;20136;-75
2021/08/09 06:09:12;;;;;;;4.00;1.70;;;14.40;99.90;;;;;;5052884;28;20128;-75
2021/08/09 06:11:40;;;;;;;3.35;1.70;;;14.40;99.90;;;;;;5052620;28;20135;-76
2021/08/09 06:14:07;;;;;;;4.00;1.50;;;14.50;99.90;;;;;;5052883;28;20060;-77
2021/08/09 06:16:36;;;;;;;4.30;1.40;;;14.50;99.90;;;;;;5052640;28;20077;-77
2021/08/09 06:19:03;;;;;;;4.13;1.50;;;14.50;99.90;;;;;;5052653;28;20131;-77
2021/08/09 06:21:30;;;;;;;4.30;1.60;;;14.50;99.90;;;;;;5052747;28;20132;-77
2021/08/09 06:23:57;;;;;;;2.70;1.40;;;14.50;99.90;;;;;;5052488;28;20190;-75
2021/08/09 06:26:24;;;;;;;3.78;1.50;;;14.50;99.90;;;;;;5052810;28;20140;-78
2021/08/09 06:28:52;;;;;;;3.90;1.75;;;14.60;99.90;;;;;;5052709;28;20088;-77
2021/08/09 06:31:19;;;;;;;2.97;1.30;;;14.60;99.90;;;;;;5052605;28;20059;-76
2021/08/09 06:33:48;;;;;;;3.47;1.60;;;14.60;99.90;;;;;;5052476;28;20144;-77
2021/08/09 06:36:15;;;;;;;4.07;1.60;;;14.60;99.90;;;;;;5052479;28;20060;-78
2021/08/09 06:38:42;;;;;;;3.83;1.60;;;14.70;99.90;;;;;;5052456;28;20136;-77
2021/08/09 06:41:09;;;;;;;3.50;1.58;;;14.70;99.90;;;;;;5054563;28;20136;-77
2021/08/09 06:43:36;;;;;;;3.92;1.60;;;14.80;99.90;;;;;;5053766;28;20211;-77
2021/08/09 06:46:03;;;;;;;3.70;1.58;;;14.90;99.90;;;;;;5053951;28;20129;-76
2021/08/09 06:48:30;;;;;;;3.10;1.50;;;14.90;99.90;;;;;;5052704;28;20045;-76
2021/08/09 06:50:58;;;;;;;4.82;1.50;;;15.00;99.90;;;;;;5052292;28;20147;-77
2021/08/09 06:53:25;;;;;;;3.88;1.60;;;15.10;99.90;;;;;;5052050;28;20554;-77
2021/08/09 06:55:52;;;;;;;4.53;1.35;;;15.20;99.90;;;;;;5052186;28;20049;-76
2021/08/09 06:58:19;;;;;;;3.25;1.38;;;15.20;99.90;;;;;;5051072;28;20068;-77
2021/08/09 07:00:46;;;;;;;3.50;1.33;;;15.30;99.90;;;;;;5051564;28;20481;-76
2021/08/09 07:03:15;;;;;;;4.13;1.70;;;15.40;99.90;;;;;;5052290;28;20139;-78
2021/08/09 07:05:43;;;;;;;2.72;1.30;;;15.50;99.90;;;;;;5052233;28;20475;-76
2021/08/09 07:08:12;;;;;;;3.47;1.20;;;15.50;99.90;;;;;;5053592;28;20570;-76
2021/08/09 07:10:40;;;;;;;3.08;1.20;;;15.60;99.90;;;;;;5055801;28;20080;-76
2021/08/09 07:13:08;;;;;;;2.65;1.20;;;15.70;99.90;;;;;;5059194;28;20467;-78
2021/08/09 07:15:35;;;;;;;3.28;1.20;;;15.80;99.90;;;;;;5062455;28;20083;-78
2021/08/09 07:18:03;;;;;;;2.42;1.17;;;15.90;99.90;;;;;;5055695;28;20120;-76
2021/08/09 07:20:30;;;;;;;4.57;1.40;;;16.00;99.90;;;;;;5055378;28;20045;-77
2021/08/09 07:22:57;;;;;;;3.15;1.30;;;16.10;99.90;;;;;;5055759;28;20455;-77
2021/08/09 07:25:25;;;;;;;4.97;1.38;;;16.20;99.90;;;;;;5055515;28;20132;-78
2021/08/09 07:27:52;;;;;;;3.53;1.30;;;16.30;99.90;;;;;;5055611;28;20554;-75
2021/08/09 07:30:19;;;;;;;3.90;1.40;;;16.40;99.90;;;;;;5055514;28;20053;-80
2021/08/09 07:32:46;;;;;;;5.63;1.42;;;16.40;99.90;;;;;;5055411;28;20131;-78
2021/08/09 07:35:14;;;;;;;2.78;1.15;;;16.60;99.50;;;;;;5055401;28;20135;-79
2021/08/09 07:37:41;;;;;;;3.25;1.00;;;16.60;99.50;;;;;;5055650;28;20044;-78
2021/08/09 07:40:10;;;;;;;2.80;1.00;;;16.80;99.60;;;;;;5055455;28;20132;-78
2021/08/09 07:42:38;;;;;;;3.70;1.38;;;16.90;99.60;;;;;;5055474;28;20128;-79
2021/08/09 07:45:07;;;;;;;2.15;1.00;;;17.00;99.20;;;;;;5055401;28;20131;-80
2021/08/09 07:47:34;;;;;;;2.60;1.30;;;17.10;99.10;;;;;;5055612;28;20045;-79
2021/08/09 07:50:01;;;;;;;3.60;1.15;;;17.20;99.30;;;;;;5056031;28;20464;-80
2021/08/09 07:52:28;;;;;;;3.45;1.38;;;17.30;99.00;;;;;;5055074;28;20041;-78
2021/08/09 07:54:56;;;;;;;3.15;1.00;;;17.50;99.00;;;;;;5055016;28;20132;-80
2021/08/09 07:57:23;;;;;;;2.95;1.10;;;17.60;98.90;;;;;;5051424;28;20041;-79
2021/08/09 07:59:53;;;;;;;2.90;1.10;;;17.70;98.90;;;;;;5052376;28;20123;-78
2021/08/09 08:02:20;;;;;;;3.38;1.23;;;17.80;98.70;;;;;;5053252;28;20052;-77
2021/08/09 08:04:48;;;;;;;3.47;1.20;;;17.90;98.30;;;;;;5052353;28;20056;-78
2021/08/09 08:07:15;;;;;;;4.22;1.50;;;18.00;98.20;;;;;;5052946;28;20079;-80
2021/08/09 08:09:42;;;;;;;3.63;1.50;;;18.10;98.10;;;;;;5051905;28;20132;-79
2021/08/09 08:12:09;;;;;;;4.22;1.40;;;18.10;97.80;;;;;;5053308;28;20141;-79
2021/08/09 08:14:37;;;;;;;4.57;1.42;;;18.20;97.70;;;;;;5052442;28;20127;-80
2021/08/09 08:17:05;;;;;;;2.05;0.95;;;18.30;97.30;;;;;;5053159;28;20077;-87
2021/08/09 08:19:33;;;;;;;4.35;1.70;;;18.30;97.10;;;;;;5052675;28;20139;-82
2021/08/09 08:22:00;;;;;;;4.10;1.25;;;18.40;96.70;;;;;;5052714;28;20481;-80
2021/08/09 08:24:28;;;;;;;4.00;1.50;;;18.40;96.70;;;;;;5053538;28;20443;-82
2021/08/09 08:26:56;;;;;;;2.72;1.05;;;18.40;96.30;;;;;;5052122;28;20135;-82
2021/08/09 08:29:23;;;;;;;2.83;1.20;;;18.50;96.50;;;;;;5052357;28;20071;-80
2021/08/09 08:31:50;;;;;;;4.63;1.30;;;18.60;96.20;;;;;;5052430;28;20132;-77
2021/08/09 08:34:19;;;;;;;4.57;1.20;;;18.70;95.70;;;;;;5052548;28;20140;-81
2021/08/09 08:36:46;;;;;;;3.28;1.10;;;18.80;94.80;;;;;;5052204;28;20118;-78
2021/08/09 08:39:13;;;;;;;3.03;1.20;;;18.80;93.90;;;;;;5057364;28;20410;-81
2021/08/09 08:41:43;;;;;;;2.72;0.95;;;18.90;94.30;;;;;;5054402;28;20131;-79
2021/08/09 08:44:11;;;;;;;4.65;0.93;;;19.00;94.10;;;;;;5053639;28;20061;-83
2021/08/09 08:46:39;;;;;;;3.58;1.00;;;19.10;93.20;;;;;;5055330;28;20049;-80
2021/08/09 08:49:08;;;;;;;3.78;0.90;;;19.20;92.30;;;;;;5055620;28;20053;-80
2021/08/09 08:51:39;;;;;;;2.97;0.90;;;19.30;91.70;;;;;;5054579;28;20077;-87
2021/08/09 08:54:06;;;;;;;3.25;0.98;;;19.40;90.40;;;;;;5054672;28;20140;-84
2021/08/09 08:56:37;;;;;;;2.53;0.90;;;19.40;90.50;;;;;;5058669;28;20049;-82
2021/08/09 08:59:06;;;;;;;2.80;0.90;;;19.50;90.20;;;;;;5060827;28;20491;-83
2021/08/09 09:01:35;;;;;;;3.00;1.10;;;19.50;89.30;;;;;;5060721;28;20402;-87
2021/08/09 09:04:27;;;;;;;3.95;1.00;;;19.60;88.60;;;;;;5060244;28;20075;-82
2021/08/09 09:07:00;;;;;;;2.30;0.80;;;19.60;86.70;;;;;;5060793;28;20041;-83
2021/08/09 09:09:29;;;;;;;2.20;0.80;;;19.70;86.90;;;;;;5059877;28;20099;-83
2021/08/09 09:11:57;;;;;;;2.63;1.00;;;19.70;85.70;;;;;;5060521;28;20076;-81
2021/08/09 09:14:31;;;;;;;2.70;1.00;;;19.80;85.20;;;;;;5057063;28;20132;-84
2021/08/09 09:16:59;;;;;;;;;;;19.90;85.80;;;;;;5056599;28;20044;-80
2021/08/09 09:19:33;;;;;;;3.45;0.88;;;19.90;84.00;;;;;;5059983;28;19992;-82
2021/08/09 09:22:03;;;;;;;2.13;0.80;;;19.90;83.10;;;;;;5060417;28;20060;-82
2021/08/09 09:24:31;;;;;;;2.55;0.95;;;20.00;83.40;;;;;;5060568;28;20121;-81
2021/08/09 09:27:02;;;;;;;2.97;0.93;;;20.10;83.30;;;;;;5060018;28;20402;-80
2021/08/09 09:29:36;;;;;;;2.78;1.00;;;20.20;83.10;;;;;;5056645;28;20530;-81
2021/08/09 09:32:16;;;;;;;3.15;0.95;;;20.30;82.30;;;;;;5057450;28;20045;-81
2021/08/09 09:34:48;;;;;;;3.35;0.80;;;20.30;79.90;;;;;;5058509;28;20463;-79
2021/08/09 09:37:26;;;;;;;2.10;0.90;;;20.40;79.80;;;;;;5057607;28;20057;-82
2021/08/09 09:39:55;;;;;;;2.72;1.00;;;20.40;79.50;;;;;;5058535;28;20045;-79
2021/08/09 09:42:34;;;;;;;2.60;0.80;;;20.50;78.60;;;;;;5058804;28;20140;-79
2021/08/09 09:45:21;;;;;;;4.35;1.13;;;20.60;79.40;;;;;;5058912;28;20114;-79
2021/08/09 09:48:03;;;;;;;3.22;0.80;;;20.60;78.90;;;;;;5056671;28;20072;-81
2021/08/09 09:50:31;;;;;;;4.70;1.00;;;20.70;79.10;;;;;;5054798;28;20051;-78
2021/08/09 09:53:17;;;;;;;2.10;0.73;;;20.70;78.20;;;;;;5055174;28;20582;-82
2021/08/09 09:55:48;;;;;;;2.83;0.80;;;20.80;74.90;;;;;;5058633;28;20486;-79
2021/08/09 09:58:16;;;;;;;2.78;0.93;;;20.80;75.40;;;;;;5058652;28;20049;-83
2021/08/09 10:00:44;;;;;;;3.25;0.80;;;20.90;74.90;;;;;;5059450;28;20076;-81
2021/08/09 10:03:12;;;;;;;2.28;0.77;;;20.90;74.10;;;;;;5059579;28;20105;-80
2021/08/09 10:05:40;;;;;;;2.42;1.00;;;21.00;73.10;;;;;;5059715;28;20112;-80
2021/08/09 10:08:14;;;;;;;3.33;1.00;;;21.00;72.60;;;;;;5053755;28;20056;-78
2021/08/09 10:10:46;;;;;;;2.83;0.90;;;21.00;69.80;;;;;;5058666;28;20045;-83
2021/08/09 10:13:16;;;;;;;3.55;1.00;;;21.00;69.30;;;;;;5058212;28;20499;-78
2021/08/09 10:15:44;;;;;;;3.63;1.05;;;21.10;70.40;;;;;;5054696;28;20136;-81
2021/08/09 10:18:11;;;;;;;4.05;1.10;;;21.10;70.40;;;;;;5052735;28;20097;-79
2021/08/09 10:20:39;;;;;;;3.13;1.00;;;21.10;70.90;;;;;;5053857;28;20133;-78
2021/08/09 10:23:06;;;;;;;2.65;0.98;;;21.20;70.30;;;;;;5052534;28;20400;-78
2021/08/09 10:25:47;;;;;;;2.97;0.85;;;21.20;69.00;;;;;;5053247;28;20053;-79
2021/08/09 10:28:14;;;;;;;3.58;1.17;;;21.30;69.20;;;;;;5053488;28;20053;-77
2021/08/09 10:30:42;;;;;;;3.67;1.10;;;21.30;69.00;;;;;;5051895;28;20582;-78
2021/08/09 10:33:10;;;;;;;2.33;0.90;;;21.30;69.60;;;;;;5049449;28;20499;-82
2021/08/09 10:36:04;;;;;;;2.10;0.80;;;21.40;68.70;;;;;;5049379;28;20445;-79
2021/08/09 10:38:43;;;;;;;2.60;0.90;;;21.40;70.00;;;;;;5050119;28;20486;-79
2021/08/09 10:41:37;;;;;;;3.17;1.10;;;21.50;70.00;;;;;;5059978;28;20084;-79
2021/08/09 10:44:25;;;;;;;3.28;0.80;;;21.50;70.40;;;;;;5057127;28;20052;-80
2021/08/09 10:46:53;;;;;;;4.63;1.40;;;21.60;69.80;;;;;;5053568;28;20124;-83
2021/08/09 10:49:52;;;;;;;1.95;0.77;;;21.70;69.60;;;;;;5054073;28;20147;-82
2021/08/09 10:52:39;;;;;;;2.38;0.73;;;21.70;68.90;;;;;;4992239;28;20190;-79
2021/08/09 10:55:46;;;;;;;2.60;1.10;;;21.80;69.60;;;;;;5048316;28;20132;-79
2021/08/09 10:58:57;;;;;;;1.73;0.85;;;21.80;69.60;;;;;;5050830;28;20056;-81
2021/08/09 11:01:26;;;;;;;3.33;1.20;;;21.90;69.70;;;;;;5052365;28;20041;-85
2021/08/09 11:04:18;;;;;;;2.58;0.90;;;21.90;69.50;;;;;;5053919;28;20052;-86
2021/08/09 11:06:52;;;;;;;2.42;1.00;;;22.00;69.90;;;;;;5052900;28;20550;-86
2021/08/09 11:09:42;;;;;;;3.28;1.10;;;22.10;67.20;;;;;;5054750;28;20128;-82
2021/08/09 11:12:22;;;;;;;2.88;1.00;;;22.10;67.40;;;;;;5067974;28;20041;-79
2021/08/09 11:15:23;;;;;;;3.13;0.90;;;22.20;66.50;;;;;;5064330;28;20049;-81
2021/08/09 11:17:58;;;;;;;2.25;0.80;;;22.20;66.30;;;;;;5066737;28;20077;-79
2021/08/09 11:20:30;;;;;;;3.30;1.10;;;22.20;67.00;;;;;;5059222;28;20124;-82
2021/08/09 11:23:05;;;;;;;2.58;1.10;;;22.40;66.30;;;;;;5053406;28;20095;-78
2021/08/09 11:25:35;;;;;;;3.03;1.00;;;22.40;66.10;;;;;;5053976;28;20094;-81
2021/08/09 11:28:06;;;;;;;2.42;0.98;;;22.40;66.00;;;;;;5060960;28;20118;-85
2021/08/09 11:30:48;;;;;;;3.35;0.90;;;22.60;63.80;;;;;;5059729;28;20116;-80
2021/08/09 11:33:28;;;;;;;2.20;1.00;;;22.60;64.10;;;;;;5058460;28;20131;-80
2021/08/09 11:35:58;;;;;;;2.78;1.00;;;22.70;63.60;;;;;;5058068;28;20076;-80
2021/08/09 11:38:26;;;;;;;2.85;0.95;;;22.80;65.50;;;;;;5055697;28;20418;-82
2021/08/09 11:40:55;;;;;;;2.42;0.90;;;22.80;64.10;;;;;;5052886;28;20118;-80
2021/08/09 11:43:26;;;;;;;4.13;1.00;;;22.80;63.50;;;;;;5052948;28;20072;-79
2021/08/09 11:45:57;;;;;;;2.35;0.80;;;22.90;63.70;;;;;;5052679;28;20053;-84
2021/08/09 11:48:29;;;;;;;2.78;1.02;;;22.90;63.10;;;;;;5053791;28;20076;-85
2021/08/09 11:51:00;;;;;;;4.13;1.05;;;23.00;62.60;;;;;;5053303;28;20140;-81
2021/08/09 11:53:27;;;;;;;3.45;1.23;;;23.10;62.80;;;;;;5052380;28;20135;-82
2021/08/09 11:56:10;;;;;;;2.88;0.90;;;23.20;60.60;;;;;;5053613;28;20112;-80
2021/08/09 11:58:37;;;;;;;2.83;1.00;;;23.30;61.80;;;;;;5052894;28;20123;-82
2021/08/09 12:01:07;;;;;;;2.67;0.93;;;23.30;60.30;;;;;;5054060;28;20164;-88
2021/08/09 12:03:35;;;;;;;4.05;1.33;;;23.40;60.00;;;;;;5057692;28;20132;-88
2021/08/09 12:06:24;;;;;;;2.30;1.00;;;23.50;61.50;;;;;;5054615;28;20063;-83
2021/08/09 12:08:56;;;;;;;3.22;1.00;;;23.60;60.20;;;;;;5053413;28;20099;-85
2021/08/09 12:11:25;;;;;;;3.35;0.98;;;23.80;59.90;;;;;;5052596;28;20128;-79
2021/08/09 12:14:10;;;;;;;2.83;1.00;;;23.80;60.10;;;;;;5052136;28;20052;-78
2021/08/09 12:17:00;;;;;;;3.50;1.05;;;23.90;58.40;;;;;;5052041;28;20488;-78
2021/08/09 12:19:39;;;;;;;3.47;1.15;;;23.90;59.90;;;;;;5047347;28;20191;-78
2021/08/09 12:22:13;;;;;;;3.15;1.20;;;23.90;59.00;;;;;;5060244;28;20072;-79
2021/08/09 12:24:41;;;;;;;2.42;0.82;;;23.90;58.60;;;;;;5052922;28;20045;-79
2021/08/09 12:27:19;;;;;;;3.17;1.10;;;23.80;59.20;;;;;;5051822;28;20132;-79
2021/08/09 12:30:05;;;;;;;2.45;0.80;;;23.70;58.40;;;;;;5051908;28;20081;-78
2021/08/09 12:32:35;;;;;;;3.70;1.00;;;23.70;59.20;;;;;;5050813;28;20394;-80
2021/08/09 12:35:04;;;;;;;3.03;1.05;;;23.70;59.20;;;;;;5051252;28;20045;-80
2021/08/09 12:37:33;;;;;;;2.63;0.90;;;23.70;59.40;;;;;;5051385;28;20060;-79
2021/08/09 12:40:13;;;;;;;2.58;1.05;;;23.80;60.20;;;;;;5051408;28;20059;-79
2021/08/09 12:42:42;;;;;;;2.28;0.85;;;23.80;60.00;;;;;;5051254;28;20085;-80
2021/08/09 12:45:11;;;;;;;3.83;0.90;;;23.80;60.40;;;;;;5050716;28;20132;-78
2021/08/09 12:47:39;;;;;;;1.95;0.80;;;23.80;59.10;;;;;;5051035;28;20140;-80
2021/08/09 12:50:08;;;;;;;2.42;0.93;;;23.90;58.90;;;;;;5056173;28;20076;-80
2021/08/09 12:52:35;;;;;;;2.17;0.90;;;23.90;58.10;;;;;;5051303;28;20037;-79
2021/08/09 12:55:02;;;;;;;2.60;1.00;;;24.00;58.80;;;;;;5057702;28;20144;-76
2021/08/09 12:57:29;;;;;;;2.42;1.00;;;24.00;58.50;;;;;;5061384;28;20077;-77
2021/08/09 12:59:57;;;;;;;2.28;0.93;;;24.00;57.30;;;;;;5063024;28;20079;-76
2021/08/09 13:02:24;;;;;;;3.28;1.40;;;24.00;58.00;;;;;;5057770;28;20109;-78
2021/08/09 13:04:52;;;;;;;2.17;0.93;;;24.00;59.50;;;;;;5050878;28;20574;-76